Time;durP1;ratioP1;P1;durP2;ratioP2;P2;SDS_P1;SDS_P2;PMS_P1;PMS_P2;Temp;Humidity;BMP_temperature;BMP_pressure;BME280_temperature;BME280_humidity;BME280_pressure;Samples;Min_cycle;Max_cycle;Signal;HPM_P1;HPM_P2
2021/09/12 00:00:19;;;;;;;9.30;7.32;;;;;;;16.39;95.19;101124.22;694153;28;1436;-52
2021/09/12 00:00:40;;;;;;;8.27;7.30;;;;;;;16.39;94.88;101125.06;693932;28;930;-55
2021/09/12 00:01:00;;;;;;;9.13;6.90;;;;;;;16.38;95.11;101126.00;693215;28;4349;-53
2021/09/12 00:01:21;;;;;;;8.70;7.13;;;;;;;16.37;95.29;101129.53;693893;28;1577;-52
2021/09/12 00:01:41;;;;;;;9.40;7.73;;;;;;;16.37;95.02;101129.53;693209;28;1119;-52
2021/09/12 00:02:02;;;;;;;10.82;7.63;;;;;;;16.37;94.78;101121.59;693563;28;3540;-55
2021/09/12 00:02:22;;;;;;;9.00;7.40;;;;;;;16.37;95.15;101126.88;693844;28;4011;-54
2021/09/12 00:02:42;;;;;;;9.38;7.70;;;;;;;16.37;95.18;101121.59;693368;28;1923;-54
2021/09/12 00:03:03;;;;;;;11.87;7.50;;;;;;;16.37;95.32;101118.09;694217;28;3980;-54
2021/09/12 00:03:23;;;;;;;10.07;7.53;;;;;;;16.37;95.65;101131.31;694750;28;1863;-53
2021/09/12 00:03:43;;;;;;;9.88;7.97;;;;;;;16.37;95.67;101120.75;692957;28;4585;-52
2021/09/12 00:04:04;;;;;;;8.80;7.53;;;;;;;16.37;95.31;101120.75;695646;28;988;-55
2021/09/12 00:04:24;;;;;;;8.77;7.60;;;;;;;16.38;95.47;101122.47;695558;28;1117;-53
2021/09/12 00:04:45;;;;;;;9.13;7.60;;;;;;;16.38;95.32;101127.75;695303;28;1435;-54
2021/09/12 00:05:06;;;;;;;9.43;7.75;;;;;;;16.38;95.60;101130.38;694766;28;2763;-52
2021/09/12 00:05:27;;;;;;;8.90;7.82;;;;;;;16.37;95.13;101126.88;695202;28;2122;-51
2021/09/12 00:05:47;;;;;;;8.82;7.78;;;;;;;16.37;95.28;101121.59;695277;28;3435;-52
2021/09/12 00:06:08;;;;;;;7.93;6.97;;;;;;;16.37;95.59;101120.75;693684;28;1135;-54
2021/09/12 00:06:28;;;;;;;8.52;7.18;;;;;;;16.34;95.43;101130.44;693898;28;1574;-55
2021/09/12 00:06:48;;;;;;;9.30;7.63;;;;;;;16.33;95.17;101126.06;692750;28;4623;-55
2021/09/12 00:07:09;;;;;;;10.05;7.53;;;;;;;16.34;94.98;101127.81;694176;28;937;-56
2021/09/12 00:07:29;;;;;;;9.23;7.67;;;;;;;16.36;95.30;101124.28;693022;28;1646;-50
2021/09/12 00:07:50;;;;;;;9.33;7.70;;;;;;;16.35;95.96;101126.03;693431;28;1333;-52
2021/09/12 00:08:10;;;;;;;10.75;7.93;;;;;;;16.33;96.04;101123.44;693726;28;3094;-55
2021/09/12 00:08:30;;;;;;;10.03;7.97;;;;;;;16.33;95.78;101123.44;694096;28;4445;-55
2021/09/12 00:08:51;;;;;;;9.98;7.82;;;;;;;16.32;95.62;101120.81;692454;28;1260;-55
2021/09/12 00:09:11;;;;;;;9.87;7.63;;;;;;;16.33;95.69;101122.56;694498;28;1185;-55
2021/09/12 00:09:32;;;;;;;10.52;7.88;;;;;;;16.33;95.15;101120.78;694624;28;1357;-55
2021/09/12 00:09:52;;;;;;;9.00;7.60;;;;;;;16.34;95.10;101121.69;692945;28;4494;-54
2021/09/12 00:10:14;;;;;;;8.88;7.50;;;;;;;16.34;95.24;101117.25;693788;28;1569;-54
2021/09/12 00:10:34;;;;;;;9.48;7.55;;;;;;;16.36;95.33;101124.28;693718;28;948;-53
2021/09/12 00:10:55;;;;;;;9.20;7.70;;;;;;;16.38;94.91;101130.38;693019;28;1582;-55
2021/09/12 00:11:15;;;;;;;8.70;7.03;;;;;;;16.38;94.96;101125.09;693913;28;3889;-54
2021/09/12 00:11:35;;;;;;;9.43;7.07;;;;;;;16.38;95.05;101123.34;694125;28;1257;-55
2021/09/12 00:11:56;;;;;;;9.33;7.60;;;;;;;16.38;95.65;101118.06;693228;28;4171;-55
2021/09/12 00:12:16;;;;;;;9.48;7.88;;;;;;;16.37;95.67;101121.59;693929;28;1464;-53
2021/09/12 00:12:38;;;;;;;9.80;7.70;;;;;;;16.37;95.16;101120.75;693887;28;933;-55
2021/09/12 00:12:58;;;;;;;8.57;7.45;;;;;;;16.37;95.07;101121.59;693788;28;4544;-51
2021/09/12 00:13:19;;;;;;;8.60;7.23;;;;;;;16.39;94.37;101124.22;694242;28;1364;-54
2021/09/12 00:13:41;;;;;;;9.13;7.23;;;;;;;16.39;95.35;101124.22;694654;28;1661;-52
2021/09/12 00:14:01;;;;;;;9.38;7.40;;;;;;;16.38;95.27;101123.34;694299;28;1640;-54
2021/09/12 00:14:21;;;;;;;8.70;7.37;;;;;;;16.38;95.20;101119.81;693967;28;3586;-53
2021/09/12 00:14:42;;;;;;;9.93;7.47;;;;;;;16.37;94.93;101126.88;693335;28;1797;-53
2021/09/12 00:15:04;;;;;;;9.13;7.45;;;;;;;16.39;95.17;101118.94;694411;28;4635;-54
2021/09/12 00:15:25;;;;;;;10.50;7.90;;;;;;;16.37;95.77;101120.75;693109;28;1526;-56
2021/09/12 00:15:46;;;;;;;10.35;8.00;;;;;;;16.34;95.80;101122.53;693001;28;4541;-51
2021/09/12 00:16:06;;;;;;;8.85;7.93;;;;;;;16.34;95.60;101124.31;694384;28;1802;-54
2021/09/12 00:16:27;;;;;;;9.25;8.02;;;;;;;16.35;95.77;101120.75;693931;28;1516;-53
2021/09/12 00:16:47;;;;;;;9.33;7.67;;;;;;;16.33;95.53;101120.78;693605;28;1854;-54
2021/09/12 00:17:08;;;;;;;11.03;8.33;;;;;;;16.34;95.49;101122.53;693378;28;1177;-55
2021/09/12 00:17:28;;;;;;;10.35;8.02;;;;;;;16.34;95.13;101119.03;694465;28;3826;-55
2021/09/12 00:17:48;;;;;;;8.43;7.53;;;;;;;16.34;95.07;101122.53;694662;28;4637;-53
2021/09/12 00:18:09;;;;;;;8.75;7.60;;;;;;;16.36;95.30;101121.63;693924;28;2346;-55
2021/09/12 00:18:29;;;;;;;8.70;7.80;;;;;;;16.35;95.79;101123.38;693696;28;1618;-53
2021/09/12 00:18:49;;;;;;;10.27;8.18;;;;;;;16.34;95.96;101117.25;693354;28;4281;-55
2021/09/12 00:19:10;;;;;;;9.40;8.10;;;;;;;16.32;96.24;101119.06;693077;28;1392;-53
2021/09/12 00:19:31;;;;;;;9.30;8.07;;;;;;;16.33;96.08;101120.78;692755;28;1066;-54
2021/09/12 00:19:51;;;;;;;8.77;7.63;;;;;;;16.31;95.64;101125.25;693824;28;1360;-51
2021/09/12 00:20:12;;;;;;;9.73;7.70;;;;;;;16.32;95.26;101121.72;693418;28;1366;-54
2021/09/12 00:20:32;;;;;;;9.63;7.43;;;;;;;16.32;95.30;101124.34;693895;28;4025;-55
2021/09/12 00:20:52;;;;;;;8.98;7.18;;;;;;;16.34;94.89;101119.91;695374;28;1539;-50
2021/09/12 00:21:13;;;;;;;8.40;7.50;;;;;;;16.36;95.07;101124.28;695590;28;1898;-50
2021/09/12 00:21:33;;;;;;;8.40;7.45;;;;;;;16.36;95.03;101124.28;695089;28;4352;-51
2021/09/12 00:21:54;;;;;;;8.13;7.13;;;;;;;16.36;95.10;101129.56;694966;28;4388;-54
2021/09/12 00:22:14;;;;;;;8.77;7.07;;;;;;;16.37;94.78;101123.38;695141;28;1602;-54
2021/09/12 00:22:34;;;;;;;9.50;6.65;;;;;;;16.37;94.76;101120.75;695078;28;1918;-52
2021/09/12 00:22:55;;;;;;;8.97;7.03;;;;;;;16.39;94.72;101119.78;695186;28;1334;-53
2021/09/12 00:23:16;;;;;;;9.07;7.32;;;;;;;16.39;95.19;101114.50;695693;28;1408;-53
2021/09/12 00:23:36;;;;;;;9.40;7.23;;;;;;;16.39;95.63;101121.56;694821;28;4333;-54
2021/09/12 00:23:56;;;;;;;9.93;7.32;;;;;;;16.37;95.84;101120.75;694727;28;1600;-52
2021/09/12 00:24:17;;;;;;;8.77;7.67;;;;;;;16.34;96.04;101124.31;695620;28;4448;-51
2021/09/12 00:24:39;;;;;;;8.90;7.72;;;;;;;16.32;95.94;101121.72;694986;28;1797;-55
2021/09/12 00:25:00;;;;;;;9.05;7.57;;;;;;;16.32;95.89;101119.06;695338;28;4431;-52
2021/09/12 00:25:21;;;;;;;9.50;7.43;;;;;;;16.31;95.94;101117.34;695592;28;1427;-53
2021/09/12 00:25:41;;;;;;;9.40;7.70;;;;;;;16.29;95.97;101127.03;695206;28;1245;-52
2021/09/12 00:26:01;;;;;;;8.67;7.70;;;;;;;16.28;95.74;101120.03;695639;28;1186;-54
2021/09/12 00:26:22;;;;;;;8.55;7.65;;;;;;;16.27;96.06;101120.94;695813;28;1412;-55
2021/09/12 00:26:42;;;;;;;8.30;7.50;;;;;;;16.28;95.59;101127.06;695087;28;4226;-52
2021/09/12 00:27:03;;;;;;;9.10;7.38;;;;;;;16.29;95.33;101112.97;695386;28;3704;-52
2021/09/12 00:27:23;;;;;;;9.27;7.20;;;;;;;16.29;95.40;101108.56;695161;28;1507;-52
2021/09/12 00:27:44;;;;;;;9.02;7.43;;;;;;;16.30;96.06;101117.38;695381;28;4474;-55
2021/09/12 00:28:04;;;;;;;9.47;7.60;;;;;;;16.28;96.56;101114.75;695595;28;960;-53
2021/09/12 00:28:25;;;;;;;9.65;7.80;;;;;;;16.27;96.49;101115.66;695485;28;1362;-54
2021/09/12 00:28:45;;;;;;;10.20;7.70;;;;;;;16.28;96.36;101114.75;695263;28;1801;-54
2021/09/12 00:29:05;;;;;;;9.33;7.93;;;;;;;16.28;96.14;101114.75;695540;28;1516;-53
2021/09/12 00:29:26;;;;;;;9.02;7.60;;;;;;;16.30;95.17;101109.44;695634;28;1766;-53
2021/09/12 00:29:46;;;;;;;8.80;7.20;;;;;;;16.32;94.93;101119.06;695639;28;1619;-53
2021/09/12 00:30:07;;;;;;;8.30;7.15;;;;;;;16.33;95.26;101118.16;695023;28;4569;-56
2021/09/12 00:30:28;;;;;;;8.23;7.13;;;;;;;16.36;95.44;101119.00;695451;28;1519;-55
2021/09/12 00:30:48;;;;;;;9.97;7.50;;;;;;;16.35;95.84;101118.13;694522;28;4511;-53
2021/09/12 00:31:08;;;;;;;9.45;7.40;;;;;;;16.33;95.20;101118.16;695606;28;1840;-55
2021/09/12 00:31:29;;;;;;;8.40;7.10;;;;;;;16.33;95.48;101118.16;695589;28;1891;-54
2021/09/12 00:31:49;;;;;;;8.82;7.70;;;;;;;16.32;95.73;101119.06;695404;28;1512;-51
2021/09/12 00:32:10;;;;;;;10.03;7.90;;;;;;;16.31;95.76;101119.09;695458;28;1430;-53
2021/09/12 00:32:30;;;;;;;10.00;7.80;;;;;;;16.31;95.67;101112.06;695351;28;1887;-53
2021/09/12 00:32:50;;;;;;;8.95;7.63;;;;;;;16.31;95.82;101117.34;695189;28;1658;-54
2021/09/12 00:33:11;;;;;;;9.33;7.97;;;;;;;16.30;95.78;101115.59;694085;28;3976;-55
2021/09/12 00:33:33;;;;;;;9.82;7.70;;;;;;;16.31;95.67;101116.44;694684;28;2189;-55
2021/09/12 00:33:54;;;;;;;8.48;7.53;;;;;;;16.30;95.40;101115.59;694914;28;4529;-53
2021/09/12 00:34:14;;;;;;;8.98;7.68;;;;;;;16.31;95.84;101113.81;695590;28;1622;-57
2021/09/12 00:34:34;;;;;;;9.30;7.70;;;;;;;16.32;95.10;101110.28;695145;28;1418;-51
2021/09/12 00:34:55;;;;;;;9.00;7.80;;;;;;;16.32;95.82;101111.16;695047;28;1675;-54
2021/09/12 00:35:15;;;;;;;8.90;7.80;;;;;;;16.31;95.64;101106.78;695439;28;1728;-54
2021/09/12 00:35:35;;;;;;;9.37;7.70;;;;;;;16.31;95.86;101109.41;692303;28;1664;-53
2021/09/12 00:35:56;;;;;;;8.98;7.22;;;;;;;16.32;95.49;101116.44;693327;28;1172;-53
2021/09/12 00:36:16;;;;;;;8.87;7.23;;;;;;;16.33;95.94;101109.38;692290;28;3760;-53
2021/09/12 00:36:37;;;;;;;8.97;7.70;;;;;;;16.34;95.97;101106.69;694079;28;2081;-51
2021/09/12 00:36:57;;;;;;;9.05;7.63;;;;;;;16.32;95.47;101108.53;693796;28;4356;-54
2021/09/12 00:37:18;;;;;;;9.60;7.60;;;;;;;16.35;95.54;101112.84;693580;28;1701;-52
2021/09/12 00:37:38;;;;;;;8.57;7.18;;;;;;;16.33;95.54;101110.22;694190;28;1541;-54
2021/09/12 00:37:59;;;;;;;8.82;7.45;;;;;;;16.34;95.20;101111.97;693427;28;1347;-54
2021/09/12 00:38:19;;;;;;;9.07;7.60;;;;;;;16.36;95.61;101108.44;694541;28;1502;-53
2021/09/12 00:38:40;;;;;;;8.95;7.28;;;;;;;16.37;95.07;101115.47;694735;28;1404;-52
2021/09/12 00:39:00;;;;;;;8.67;6.83;;;;;;;16.36;94.96;101111.09;693430;28;1243;-55
2021/09/12 00:39:20;;;;;;;8.15;6.90;;;;;;;16.34;94.23;101106.69;694373;28;3606;-55
2021/09/12 00:39:41;;;;;;;9.43;7.03;;;;;;;16.36;94.74;101113.72;694692;28;4195;-53
2021/09/12 00:40:02;;;;;;;8.32;7.25;;;;;;;16.34;94.72;101111.13;694038;28;4456;-52
2021/09/12 00:40:23;;;;;;;8.07;7.10;;;;;;;16.34;94.55;101111.97;694603;28;1341;-54
2021/09/12 00:40:43;;;;;;;7.30;6.60;;;;;;;16.36;93.83;101111.09;694827;28;1012;-55
2021/09/12 00:41:04;;;;;;;7.20;6.50;;;;;;;16.38;94.55;101115.44;693297;28;1521;-50
2021/09/12 00:41:24;;;;;;;8.20;6.97;;;;;;;16.39;94.95;101109.22;693542;28;1529;-53
2021/09/12 00:41:45;;;;;;;9.20;7.40;;;;;;;16.36;95.03;101108.44;694519;28;1721;-54
2021/09/12 00:42:05;;;;;;;8.70;7.47;;;;;;;16.34;95.12;101111.13;693740;28;1342;-55
2021/09/12 00:42:26;;;;;;;10.93;7.67;;;;;;;16.31;95.69;101116.44;693782;28;4094;-54
2021/09/12 00:42:47;;;;;;;11.00;8.07;;;;;;;16.30;95.60;101107.66;693694;28;4305;-54
2021/09/12 00:43:07;;;;;;;9.70;7.75;;;;;;;16.31;95.16;101113.81;695452;28;1433;-53
2021/09/12 00:43:27;;;;;;;9.50;7.60;;;;;;;16.31;95.15;101112.06;694238;28;1283;-51
2021/09/12 00:43:48;;;;;;;9.33;7.83;;;;;;;16.30;95.36;101109.44;693928;28;1819;-53
2021/09/12 00:44:11;;;;;;;8.95;7.95;;;;;;;16.31;95.58;101109.41;694740;28;1744;-50
2021/09/12 00:44:32;;;;;;;9.20;8.00;;;;;;;16.31;95.92;101114.69;693885;28;1420;-55
2021/09/12 00:44:52;;;;;;;8.95;8.05;;;;;;;16.31;95.58;101112.06;694161;28;1337;-55
2021/09/12 00:45:13;;;;;;;10.80;8.50;;;;;;;16.30;96.06;101115.59;694085;28;4158;-54
2021/09/12 00:45:33;;;;;;;11.10;8.52;;;;;;;16.31;95.92;101111.16;693779;28;4091;-54
2021/09/12 00:45:55;;;;;;;10.80;8.50;;;;;;;16.29;95.54;101113.84;696319;28;4367;-52
2021/09/12 00:46:15;;;;;;;8.82;7.60;;;;;;;16.30;95.39;101107.66;697987;28;1874;-55
2021/09/12 00:46:43;;;;;;;10.40;8.10;;;;;;;16.29;95.46;101107.72;698209;28;1498;-52
2021/09/12 00:47:09;;;;;;;9.10;7.85;;;;;;;16.30;95.38;101112.94;698369;28;1332;-54
2021/09/12 00:47:30;;;;;;;9.00;7.93;;;;;;;16.31;95.31;101112.06;697719;28;1447;-55
2021/09/12 00:47:50;;;;;;;9.83;8.00;;;;;;;16.32;95.33;101105.00;697759;28;1603;-54
2021/09/12 00:48:11;;;;;;;9.53;8.03;;;;;;;16.33;94.61;101106.75;698287;28;4355;-52
2021/09/12 00:48:32;;;;;;;8.30;7.28;;;;;;;16.34;95.09;101111.97;698005;28;1398;-51
2021/09/12 00:48:52;;;;;;;8.50;7.30;;;;;;;16.34;95.28;101111.97;697194;28;4450;-54
2021/09/12 00:49:15;;;;;;;9.00;7.80;;;;;;;16.34;95.63;101111.97;697677;28;4095;-50
2021/09/12 00:49:35;;;;;;;9.55;7.82;;;;;;;16.33;95.70;101104.97;697112;28;1125;-52
2021/09/12 00:49:56;;;;;;;9.13;7.23;;;;;;;16.30;95.91;101107.66;697306;28;1284;-54
2021/09/12 00:50:16;;;;;;;9.70;7.60;;;;;;;16.27;96.01;101113.03;698264;28;1651;-52
2021/09/12 00:50:37;;;;;;;9.27;7.80;;;;;;;16.26;95.69;101108.63;697830;28;1628;-52
2021/09/12 00:50:57;;;;;;;9.03;7.60;;;;;;;16.26;95.34;101108.63;697773;28;1630;-54
2021/09/12 00:51:17;;;;;;;10.10;7.53;;;;;;;16.26;95.84;101111.28;698228;28;3290;-53
2021/09/12 00:51:38;;;;;;;9.97;7.83;;;;;;;16.26;96.02;101107.78;697840;28;1775;-52
2021/09/12 00:52:00;;;;;;;10.05;7.95;;;;;;;16.23;96.37;101106.06;695004;28;4627;-51
2021/09/12 00:52:22;;;;;;;9.70;8.07;;;;;;;16.24;95.96;101107.81;694571;28;4185;-55
2021/09/12 00:52:45;;;;;;;8.82;7.93;;;;;;;16.24;95.76;101107.81;694835;28;1561;-53
2021/09/12 00:53:06;;;;;;;8.38;7.47;;;;;;;16.26;95.74;101110.41;695005;28;1841;-50
2021/09/12 00:53:34;;;;;;;7.95;7.15;;;;;;;16.28;95.20;101108.59;695496;28;1519;-55
2021/09/12 00:53:58;;;;;;;9.15;7.20;;;;;;;16.30;94.86;101109.44;694749;28;1347;-55
2021/09/12 00:54:19;;;;;;;9.38;7.47;;;;;;;16.31;95.02;101106.78;695138;28;1144;-50
2021/09/12 00:54:40;;;;;;;9.60;7.50;;;;;;;16.32;95.53;101102.34;694260;28;3522;-52
2021/09/12 00:55:01;;;;;;;9.75;7.65;;;;;;;16.32;96.04;101108.53;697620;28;4455;-51
2021/09/12 00:55:22;;;;;;;9.20;7.70;;;;;;;16.29;96.33;101105.94;697632;28;1242;-55
2021/09/12 00:55:47;;;;;;;9.47;7.50;;;;;;;16.28;96.51;101105.97;696897;28;2762;-54
2021/09/12 00:56:09;;;;;;;8.73;7.75;;;;;;;16.27;96.46;101105.09;697808;28;1288;-55
2021/09/12 00:56:30;;;;;;;9.18;7.82;;;;;;;16.27;95.71;101113.03;696925;28;2011;-55
2021/09/12 00:56:50;;;;;;;8.82;7.60;;;;;;;16.29;95.33;101108.56;694572;28;1244;-54
2021/09/12 00:57:12;;;;;;;8.00;7.00;;;;;;;16.29;95.23;101107.72;692405;28;1883;-54
2021/09/12 00:57:34;;;;;;;7.97;6.97;;;;;;;16.30;95.52;101109.44;692350;28;3288;-53
2021/09/12 00:57:57;;;;;;;9.63;7.53;;;;;;;16.30;96.10;101105.03;689373;28;4457;-54
2021/09/12 00:58:19;;;;;;;8.55;7.47;;;;;;;16.30;95.97;101105.03;692845;28;2103;-52
2021/09/12 00:58:42;;;;;;;8.65;7.57;;;;;;;16.29;96.28;101113.84;694476;28;1801;-53
2021/09/12 00:59:07;;;;;;;8.93;7.53;;;;;;;16.27;96.51;101110.38;698484;28;1339;-52
2021/09/12 00:59:27;;;;;;;9.43;7.90;;;;;;;16.25;96.31;101106.88;700872;28;1960;-53
2021/09/12 00:59:49;;;;;;;9.32;7.90;;;;;;;16.25;96.01;101104.25;700191;28;1569;-54
2021/09/12 01:00:10;;;;;;;8.43;7.50;;;;;;;16.25;95.42;101104.25;696218;28;1335;-51
2021/09/12 01:00:31;;;;;;;11.05;8.18;;;;;;;16.27;95.55;101110.38;693115;28;1567;-54
2021/09/12 01:00:51;;;;;;;10.32;7.93;;;;;;;16.27;95.81;101102.47;693819;28;4587;-56
2021/09/12 01:01:13;;;;;;;8.60;7.67;;;;;;;16.27;95.74;101105.09;696722;28;1923;-52
2021/09/12 01:01:34;;;;;;;8.70;7.80;;;;;;;16.26;95.75;101103.38;695665;28;1424;-50
2021/09/12 01:01:55;;;;;;;10.05;8.15;;;;;;;16.25;96.27;101106.88;696288;28;1369;-53
2021/09/12 01:02:18;;;;;;;10.10;8.40;;;;;;;16.25;96.29;101111.31;695967;28;1423;-50
2021/09/12 01:02:39;;;;;;;10.13;8.43;;;;;;;16.23;96.55;101110.50;694671;28;2247;-52
2021/09/12 01:02:59;;;;;;;10.20;8.55;;;;;;;16.22;96.62;101112.25;696158;28;3798;-53
2021/09/12 01:03:20;;;;;;;10.10;8.23;;;;;;;16.22;96.70;101108.75;696575;28;1568;-54
2021/09/12 01:03:40;;;;;;;9.30;7.97;;;;;;;16.21;96.21;101109.63;694282;28;3611;-55
2021/09/12 01:04:02;;;;;;;8.93;7.70;;;;;;;16.19;96.46;101104.41;695479;28;4504;-53
2021/09/12 01:04:23;;;;;;;9.30;7.93;;;;;;;16.17;96.66;101101.78;698964;28;1632;-53
2021/09/12 01:04:43;;;;;;;9.27;8.13;;;;;;;16.17;96.72;101111.47;698715;28;1735;-55
2021/09/12 01:05:08;;;;;;;9.50;8.33;;;;;;;16.16;96.66;101101.84;699259;28;1701;-55
2021/09/12 01:05:28;;;;;;;9.52;8.20;;;;;;;16.17;96.60;101107.06;698031;28;1692;-54
2021/09/12 01:05:49;;;;;;;9.63;7.90;;;;;;;16.17;95.89;101100.91;698167;28;1189;-55
2021/09/12 01:06:09;;;;;;;8.20;7.30;;;;;;;16.22;95.56;101106.09;698003;28;1852;-53
2021/09/12 01:06:30;;;;;;;8.02;7.22;;;;;;;16.23;95.55;101108.72;698086;28;1359;-51
2021/09/12 01:06:51;;;;;;;8.23;7.13;;;;;;;16.26;95.13;101103.38;697030;28;4446;-50
2021/09/12 01:07:11;;;;;;;8.83;7.30;;;;;;;16.25;95.63;101103.41;698110;28;4277;-53
2021/09/12 01:07:32;;;;;;;8.60;7.38;;;;;;;16.23;96.25;101107.84;697993;28;1334;-53
2021/09/12 01:07:52;;;;;;;9.52;7.45;;;;;;;16.22;96.10;101108.75;698007;28;1485;-51
2021/09/12 01:08:13;;;;;;;9.97;7.57;;;;;;;16.23;95.25;101107.84;698135;28;1345;-55
2021/09/12 01:08:33;;;;;;;8.67;7.13;;;;;;;16.26;94.98;101103.38;696838;28;1477;-55
2021/09/12 01:08:53;;;;;;;8.52;7.10;;;;;;;16.30;94.61;101109.44;697917;28;1333;-55
2021/09/12 01:09:14;;;;;;;8.33;7.40;;;;;;;16.30;96.64;101105.03;698123;28;1462;-53
2021/09/12 01:09:38;;;;;;;8.95;7.85;;;;;;;16.27;96.90;101107.75;698137;28;4446;-53
2021/09/12 01:09:59;;;;;;;10.15;7.88;;;;;;;16.24;96.75;101105.19;694472;28;4602;-53
2021/09/12 01:10:19;;;;;;;9.35;8.10;;;;;;;16.23;96.85;101103.44;694137;28;3597;-54
2021/09/12 01:10:41;;;;;;;9.07;7.77;;;;;;;16.23;96.54;101107.84;692522;28;1714;-54
2021/09/12 01:11:01;;;;;;;9.10;7.70;;;;;;;16.22;96.76;101101.69;693039;28;1030;-54
2021/09/12 01:11:22;;;;;;;9.57;7.93;;;;;;;16.21;96.93;101102.59;693435;28;1382;-53
2021/09/12 01:11:42;;;;;;;10.50;8.17;;;;;;;16.20;97.21;101106.16;693450;28;1474;-56
2021/09/12 01:12:03;;;;;;;10.57;7.97;;;;;;;16.20;97.15;101103.50;693380;28;1495;-55
2021/09/12 01:12:24;;;;;;;9.65;7.88;;;;;;;16.20;96.55;101100.88;692578;28;1670;-51
2021/09/12 01:12:44;;;;;;;8.60;7.70;;;;;;;16.19;96.28;101107.03;693410;28;4514;-54
2021/09/12 01:13:05;;;;;;;9.03;7.90;;;;;;;16.19;96.35;101100.91;696296;28;1687;-51
2021/09/12 01:13:25;;;;;;;8.82;7.78;;;;;;;16.20;96.03;101102.63;696026;28;4035;-54
2021/09/12 01:13:45;;;;;;;8.87;7.60;;;;;;;16.19;96.68;101096.50;695649;28;1485;-54
2021/09/12 01:14:06;;;;;;;9.47;7.93;;;;;;;16.18;96.86;101100.00;696665;28;1293;-54
2021/09/12 01:14:28;;;;;;;9.57;7.75;;;;;;;16.19;96.82;101101.75;696528;28;1607;-55
2021/09/12 01:14:48;;;;;;;8.77;7.60;;;;;;;16.18;96.77;101105.28;696323;28;1735;-55
2021/09/12 01:15:09;;;;;;;10.17;7.93;;;;;;;16.18;96.82;101102.66;696283;28;1358;-55
2021/09/12 01:15:29;;;;;;;9.75;7.82;;;;;;;16.17;96.89;101098.28;695023;28;1286;-52
2021/09/12 01:15:50;;;;;;;10.02;7.70;;;;;;;16.16;96.32;101102.69;694495;28;4683;-52
2021/09/12 01:16:15;;;;;;;10.23;7.40;;;;;;;16.20;96.23;101108.78;693436;28;4040;-55
2021/09/12 01:16:36;;;;;;;7.93;6.82;;;;;;;16.24;94.87;101110.44;692441;28;1499;-55
2021/09/12 01:16:57;;;;;;;7.63;6.60;;;;;;;16.29;94.14;101103.28;693552;28;1160;-52
2021/09/12 01:17:17;;;;;;;8.93;7.18;;;;;;;16.30;95.44;101105.03;693268;28;1851;-55
2021/09/12 01:17:38;;;;;;;8.70;7.37;;;;;;;16.27;95.66;101110.38;693428;28;1325;-55
2021/09/12 01:17:58;;;;;;;8.50;7.60;;;;;;;16.25;95.97;101109.53;693059;28;1420;-54
2021/09/12 01:18:19;;;;;;;9.00;7.78;;;;;;;16.24;96.43;101107.81;690799;28;1482;-56
2021/09/12 01:18:40;;;;;;;9.37;7.80;;;;;;;16.24;96.51;101106.94;690068;28;1640;-55
2021/09/12 01:19:00;;;;;;;9.90;7.97;;;;;;;16.23;96.51;101107.84;692100;28;4346;-54
2021/09/12 01:19:20;;;;;;;9.40;7.65;;;;;;;16.23;95.96;101108.72;696331;28;4054;-52
2021/09/12 01:19:41;;;;;;;9.40;7.20;;;;;;;16.24;95.32;101105.19;695735;28;1240;-54
2021/09/12 01:20:02;;;;;;;9.57;7.75;;;;;;;16.25;96.31;101103.41;695914;28;1102;-53
2021/09/12 01:20:23;;;;;;;9.25;8.25;;;;;;;16.22;96.77;101109.59;696623;28;1425;-54
2021/09/12 01:20:44;;;;;;;9.30;8.30;;;;;;;16.19;97.29;101109.69;695826;28;1318;-53
2021/09/12 01:21:08;;;;;;;8.82;7.88;;;;;;;16.18;97.22;101105.28;695843;28;1277;-55
2021/09/12 01:21:28;;;;;;;9.32;7.70;;;;;;;16.14;96.98;101107.16;694931;28;1902;-52
2021/09/12 01:21:57;;;;;;;9.97;7.67;;;;;;;16.13;96.54;101102.75;695191;28;4389;-54
2021/09/12 01:22:17;;;;;;;9.32;7.60;;;;;;;16.13;96.48;101102.75;696275;28;3954;-51
2021/09/12 01:22:38;;;;;;;9.97;8.10;;;;;;;16.12;96.76;101108.06;695590;28;1981;-55
2021/09/12 01:22:58;;;;;;;9.73;8.10;;;;;;;16.12;97.14;101105.44;696106;28;1556;-52
2021/09/12 01:23:18;;;;;;;9.57;8.13;;;;;;;16.10;97.61;101102.84;696119;28;1282;-54
2021/09/12 01:23:40;;;;;;;9.68;8.68;;;;;;;16.09;97.39;101102.84;695944;28;1259;-52
2021/09/12 01:24:02;;;;;;;10.57;8.63;;;;;;;16.09;97.65;101105.47;694699;28;960;-55
2021/09/12 01:24:24;;;;;;;10.50;8.02;;;;;;;16.09;97.26;101106.38;695665;28;1054;-53
2021/09/12 01:24:44;;;;;;;9.77;8.23;;;;;;;16.09;96.99;101098.44;694752;28;4706;-55
2021/09/12 01:25:06;;;;;;;9.45;8.25;;;;;;;16.12;96.45;101094.88;693000;28;3314;-55
2021/09/12 01:25:26;;;;;;;8.68;7.28;;;;;;;16.14;96.21;101098.34;693294;28;1318;-51
2021/09/12 01:25:47;;;;;;;8.02;6.93;;;;;;;16.16;96.26;101100.06;692004;28;2369;-55
2021/09/12 01:26:08;;;;;;;9.95;7.93;;;;;;;16.16;96.65;101099.19;692848;28;1374;-53
2021/09/12 01:26:28;;;;;;;9.93;8.17;;;;;;;16.15;96.88;101100.94;693499;28;1299;-55
2021/09/12 01:26:48;;;;;;;9.50;8.45;;;;;;;16.14;97.08;101099.22;693113;28;1150;-51
2021/09/12 01:27:09;;;;;;;10.23;8.20;;;;;;;16.14;97.11;101093.06;693787;28;1272;-51
2021/09/12 01:27:29;;;;;;;10.60;8.37;;;;;;;16.14;97.12;101098.34;694585;28;1289;-51
2021/09/12 01:27:49;;;;;;;10.73;8.70;;;;;;;16.13;97.40;101096.59;695292;28;4613;-54
2021/09/12 01:28:11;;;;;;;9.83;8.60;;;;;;;16.12;97.48;101098.38;698162;28;4432;-51
2021/09/12 01:28:31;;;;;;;10.90;8.68;;;;;;;16.12;97.11;101097.53;697531;28;1542;-52
2021/09/12 01:28:52;;;;;;;9.85;8.13;;;;;;;16.12;96.35;101095.75;697093;28;3716;-52
2021/09/12 01:29:16;;;;;;;9.65;8.65;;;;;;;16.14;96.12;101093.06;697470;28;1701;-53
2021/09/12 01:29:36;;;;;;;9.45;8.13;;;;;;;16.15;96.80;101089.53;697459;28;1460;-51
2021/09/12 01:30:00;;;;;;;10.10;8.50;;;;;;;16.14;96.94;101093.06;698136;28;1467;-50
2021/09/12 01:30:20;;;;;;;11.25;8.60;;;;;;;16.12;97.37;101089.59;697482;28;1659;-51
2021/09/12 01:30:40;;;;;;;10.60;8.50;;;;;;;16.11;97.61;101091.34;696942;28;1330;-51
2021/09/12 01:31:01;;;;;;;10.53;8.77;;;;;;;16.11;97.45;101091.34;697669;28;4349;-52
2021/09/12 01:31:27;;;;;;;9.13;8.18;;;;;;;16.09;97.43;101087.00;697944;28;3233;-51
2021/09/12 01:31:47;;;;;;;9.48;8.00;;;;;;;16.09;97.44;101087.00;696959;28;1838;-50
2021/09/12 01:32:08;;;;;;;10.27;8.80;;;;;;;16.09;97.44;101084.38;698034;28;1825;-53
2021/09/12 01:32:28;;;;;;;10.30;8.68;;;;;;;16.09;97.70;101084.38;697819;28;1608;-52
2021/09/12 01:32:49;;;;;;;11.43;8.60;;;;;;;16.09;97.64;101084.38;697866;28;1362;-55
2021/09/12 01:33:09;;;;;;;10.80;8.70;;;;;;;16.08;97.91;101087.94;698054;28;1395;-55
2021/09/12 01:33:29;;;;;;;9.60;8.43;;;;;;;16.07;97.73;101086.19;696295;28;1502;-51
2021/09/12 01:33:50;;;;;;;9.23;8.32;;;;;;;16.08;97.75;101082.66;693910;28;4611;-54
2021/09/12 01:34:10;;;;;;;9.73;8.63;;;;;;;16.09;97.11;101084.38;693219;28;1336;-50
2021/09/12 01:34:31;;;;;;;9.95;8.48;;;;;;;16.11;97.55;101079.97;693096;28;4504;-52
2021/09/12 01:34:51;;;;;;;9.07;7.90;;;;;;;16.11;97.74;101079.97;693198;28;4405;-52
2021/09/12 01:35:12;;;;;;;9.35;7.97;;;;;;;16.09;97.87;101081.75;693243;28;1660;-54
2021/09/12 01:35:32;;;;;;;9.07;8.17;;;;;;;16.08;97.72;101082.66;693705;28;1748;-54
2021/09/12 01:35:55;;;;;;;10.52;8.57;;;;;;;16.07;97.92;101075.66;692039;28;1058;-52
2021/09/12 01:36:16;;;;;;;10.75;8.30;;;;;;;16.05;98.25;101077.44;693097;28;961;-54
2021/09/12 01:36:36;;;;;;;9.87;8.40;;;;;;;16.03;98.44;101076.59;691447;28;1372;-52
2021/09/12 01:36:57;;;;;;;9.97;8.30;;;;;;;16.02;98.32;101081.03;691777;28;4390;-54
2021/09/12 01:37:17;;;;;;;10.53;8.30;;;;;;;16.02;98.50;101083.66;692046;28;1670;-53
2021/09/12 01:37:38;;;;;;;11.13;8.60;;;;;;;16.03;97.96;101080.09;692091;28;3322;-55
2021/09/12 01:37:58;;;;;;;10.43;8.77;;;;;;;16.04;97.69;101078.34;693255;28;3898;-54
2021/09/12 01:38:18;;;;;;;9.15;8.20;;;;;;;16.04;97.52;101073.94;694314;28;1588;-55
2021/09/12 01:38:39;;;;;;;11.07;8.63;;;;;;;16.05;97.87;101077.44;694832;28;1329;-55
2021/09/12 01:38:59;;;;;;;10.48;8.88;;;;;;;16.06;98.09;101079.16;695350;28;1012;-54
2021/09/12 01:39:20;;;;;;;10.30;8.40;;;;;;;16.07;98.23;101080.91;695560;28;1297;-52
2021/09/12 01:39:40;;;;;;;9.40;8.40;;;;;;;16.05;97.76;101077.44;693141;28;1507;-52